Forester — DIUT — position and weather

sailwx.info

Track history (hours):
 
Tides and Currents Weather Stations Pressure Air Temp Water Temp Dewpoint Dewpoint Depression Visibility Wind Speed Wind Dir Waves Ship Positions

Forester

Last reported at 2015-Aug-04 17:33 UTC. Time now 2015-Aug-04 17:55 UTC.
Position N 36°22' W 002°48'.

Length 100 m; draft 7.3 m.

Type: Ship. MMSI: 211233870.

Date/timePositionNaut miles runAvg speedWind from/ knotsBaromVisibWave heightAir tempDewpointWater temp
2015-Aug-04 17:33N 36°22' W 002°48'1110.9
2015-Aug-04 16:33N 36°24' W 002°35'1110.9
2015-Aug-04 15:34N 36°26' W 002°22'1010.4
2015-Aug-04 14:33N 36°29' W 002°09'1111.0
2015-Aug-04 13:34N 36°38' W 002°03'1111.4
2015-Aug-04 12:33N 36°49' W 001°57'  
2015-Jul-27 13:15N 35°21' W 002°26'710.4
2015-Jul-27 12:33N 35°24' W 002°34'1010.5
2015-Jul-27 11:33N 35°28' W 002°46'18911.1
2015-Jul-26 18:33N 36°05' W 006°35'1211.8
2015-Jul-26 17:33N 36°08' W 006°49'1211.5
2015-Jul-26 16:33N 36°10' W 007°03'1111.5
2015-Jul-26 15:33N 36°13' W 007°17'1111.2
2015-Jul-26 14:33N 36°16' W 007°30'1111.3
2015-Jul-26 13:33N 36°18' W 007°44'1111.2
2015-Jul-26 12:33N 36°20' W 007°58'1110.9
2015-Jul-26 11:33N 36°23' W 008°11'2211.1
2015-Jul-26 09:33N 36°27' W 008°38'3210.5
2015-Jul-26 06:33N 36°35' W 009°16'2110.3
2015-Jul-26 04:33N 36°51' W 009°32'1111.0
2015-Jul-26 03:33N 37°02' W 009°35'1110.8
2015-Jul-26 02:33N 37°12' W 009°38'1111.3
2015-Jul-26 01:33N 37°23' W 009°41'1111.1
2015-Jul-26 00:33N 37°34' W 009°45'1111.2
2015-Jul-25 23:33N 37°45' W 009°48'1111.5
2015-Jul-25 22:34N 37°56' W 009°51'1111.4
2015-Jul-25 21:33N 38°07' W 009°54'1111.2
2015-Jul-25 20:33N 38°18' W 009°58'1111.3
2015-Jul-25 19:33N 38°29' W 010°01'1211.6
2015-Jul-25 18:33N 38°40' W 010°04'  
Track history (hours):
 
Tides and Currents Weather Stations Pressure Air Temp Water Temp Dewpoint Dewpoint Depression Visibility Wind Speed Wind Dir Waves Ship Positions

Forester

Last reported at 2015-Aug-04 17:33 UTC. Time now 2015-Aug-04 17:55 UTC.
Position N 36°22' W 002°48'.

Length 100 m; draft 7.3 m.

Type: Ship. MMSI: 211233870.

Date/timePositionNaut miles runAvg speedWind from/ knotsBaromVisibWave heightAir tempDewpointWater temp
2015-Aug-04 17:33N 36°22' W 002°48'1110.9
2015-Aug-04 16:33N 36°24' W 002°35'1110.9
2015-Aug-04 15:34N 36°26' W 002°22'1010.4
2015-Aug-04 14:33N 36°29' W 002°09'1111.0
2015-Aug-04 13:34N 36°38' W 002°03'1111.4
2015-Aug-04 12:33N 36°49' W 001°57'  
2015-Jul-27 13:15N 35°21' W 002°26'710.4
2015-Jul-27 12:33N 35°24' W 002°34'1010.5
2015-Jul-27 11:33N 35°28' W 002°46'18911.1
2015-Jul-26 18:33N 36°05' W 006°35'1211.8
2015-Jul-26 17:33N 36°08' W 006°49'1211.5
2015-Jul-26 16:33N 36°10' W 007°03'1111.5
2015-Jul-26 15:33N 36°13' W 007°17'1111.2
2015-Jul-26 14:33N 36°16' W 007°30'1111.3
2015-Jul-26 13:33N 36°18' W 007°44'1111.2
2015-Jul-26 12:33N 36°20' W 007°58'1110.9
2015-Jul-26 11:33N 36°23' W 008°11'2211.1
2015-Jul-26 09:33N 36°27' W 008°38'3210.5
2015-Jul-26 06:33N 36°35' W 009°16'2110.3
2015-Jul-26 04:33N 36°51' W 009°32'1111.0
2015-Jul-26 03:33N 37°02' W 009°35'1110.8
2015-Jul-26 02:33N 37°12' W 009°38'1111.3
2015-Jul-26 01:33N 37°23' W 009°41'1111.1
2015-Jul-26 00:33N 37°34' W 009°45'1111.2
2015-Jul-25 23:33N 37°45' W 009°48'1111.5
2015-Jul-25 22:34N 37°56' W 009°51'1111.4
2015-Jul-25 21:33N 38°07' W 009°54'1111.2
2015-Jul-25 20:33N 38°18' W 009°58'1111.3
2015-Jul-25 19:33N 38°29' W 010°01'1211.6
2015-Jul-25 18:33N 38°40' W 010°04'  

Dump ship's entire track history